sensor_id;sensor_type;location;lat;lon;timestamp;P1;durP1;ratioP1;P2;durP2;ratioP2
17925;SDS011;9088;55.674;13.354;2023-05-14T00:01:05;0.30;;;0.30;;
17925;SDS011;9088;55.674;13.354;2023-05-14T00:03:33;0.30;;;0.30;;
17925;SDS011;9088;55.674;13.354;2023-05-14T00:06:01;0.30;;;0.30;;
17925;SDS011;9088;55.674;13.354;2023-05-14T00:08:29;0.30;;;0.30;;
17925;SDS011;9088;55.674;13.354;2023-05-14T00:10:56;0.30;;;0.30;;
17925;SDS011;9088;55.674;13.354;2023-05-14T00:13:23;0.30;;;0.30;;
17925;SDS011;9088;55.674;13.354;2023-05-14T00:15:50;0.27;;;0.27;;
17925;SDS011;9088;55.674;13.354;2023-05-14T00:18:17;0.30;;;0.30;;
17925;SDS011;9088;55.674;13.354;2023-05-14T00:20:44;0.30;;;0.30;;
17925;SDS011;9088;55.674;13.354;2023-05-14T00:23:11;0.30;;;0.30;;
17925;SDS011;9088;55.674;13.354;2023-05-14T00:25:39;0.30;;;0.30;;
17925;SDS011;9088;55.674;13.354;2023-05-14T00:28:06;0.20;;;0.20;;
17925;SDS011;9088;55.674;13.354;2023-05-14T00:30:33;0.30;;;0.30;;
17925;SDS011;9088;55.674;13.354;2023-05-14T00:33:00;0.23;;;0.23;;
17925;SDS011;9088;55.674;13.354;2023-05-14T00:35:27;0.30;;;0.30;;
17925;SDS011;9088;55.674;13.354;2023-05-14T00:37:55;0.30;;;0.30;;
17925;SDS011;9088;55.674;13.354;2023-05-14T00:40:22;0.30;;;0.30;;
17925;SDS011;9088;55.674;13.354;2023-05-14T00:42:52;0.30;;;0.30;;
17925;SDS011;9088;55.674;13.354;2023-05-14T00:45:19;0.30;;;0.30;;
17925;SDS011;9088;55.674;13.354;2023-05-14T00:47:46;0.30;;;0.30;;
17925;SDS011;9088;55.674;13.354;2023-05-14T00:50:14;0.30;;;0.30;;
17925;SDS011;9088;55.674;13.354;2023-05-14T00:52:41;0.30;;;0.30;;
17925;SDS011;9088;55.674;13.354;2023-05-14T00:55:09;0.30;;;0.30;;
17925;SDS011;9088;55.674;13.354;2023-05-14T00:57:40;0.30;;;0.30;;
17925;SDS011;9088;55.674;13.354;2023-05-14T01:00:09;0.30;;;0.30;;
17925;SDS011;9088;55.674;13.354;2023-05-14T01:02:36;0.30;;;0.30;;
17925;SDS011;9088;55.674;13.354;2023-05-14T01:05:03;0.30;;;0.30;;
17925;SDS011;9088;55.674;13.354;2023-05-14T01:07:35;0.30;;;0.30;;
17925;SDS011;9088;55.674;13.354;2023-05-14T01:10:05;0.30;;;0.30;;
17925;SDS011;9088;55.674;13.354;2023-05-14T01:12:36;0.30;;;0.30;;
17925;SDS011;9088;55.674;13.354;2023-05-14T01:15:05;0.30;;;0.30;;
17925;SDS011;9088;55.674;13.354;2023-05-14T01:17:36;0.30;;;0.30;;
17925;SDS011;9088;55.674;13.354;2023-05-14T01:20:04;0.30;;;0.30;;
17925;SDS011;9088;55.674;13.354;2023-05-14T01:22:33;0.30;;;0.30;;
17925;SDS011;9088;55.674;13.354;2023-05-14T01:25:00;0.30;;;0.30;;
17925;SDS011;9088;55.674;13.354;2023-05-14T01:27:28;0.30;;;0.30;;
17925;SDS011;9088;55.674;13.354;2023-05-14T01:29:58;0.30;;;0.30;;
17925;SDS011;9088;55.674;13.354;2023-05-14T01:32:28;0.30;;;0.30;;
17925;SDS011;9088;55.674;13.354;2023-05-14T01:34:56;0.30;;;0.30;;
17925;SDS011;9088;55.674;13.354;2023-05-14T01:37:24;0.30;;;0.30;;
17925;SDS011;9088;55.674;13.354;2023-05-14T01:39:53;0.23;;;0.23;;
17925;SDS011;9088;55.674;13.354;2023-05-14T01:42:20;0.30;;;0.30;;
17925;SDS011;9088;55.674;13.354;2023-05-14T01:44:47;0.30;;;0.30;;
17925;SDS011;9088;55.674;13.354;2023-05-14T01:47:14;0.30;;;0.30;;
17925;SDS011;9088;55.674;13.354;2023-05-14T01:49:41;0.30;;;0.30;;
17925;SDS011;9088;55.674;13.354;2023-05-14T01:52:08;0.30;;;0.30;;
17925;SDS011;9088;55.674;13.354;2023-05-14T01:54:37;0.30;;;0.30;;
17925;SDS011;9088;55.674;13.354;2023-05-14T01:57:05;0.20;;;0.20;;
17925;SDS011;9088;55.674;13.354;2023-05-14T01:59:32;0.30;;;0.30;;
17925;SDS011;9088;55.674;13.354;2023-05-14T02:01:59;0.30;;;0.30;;
17925;SDS011;9088;55.674;13.354;2023-05-14T02:04:26;0.30;;;0.30;;
17925;SDS011;9088;55.674;13.354;2023-05-14T02:06:53;0.30;;;0.30;;
17925;SDS011;9088;55.674;13.354;2023-05-14T02:09:21;0.30;;;0.30;;
17925;SDS011;9088;55.674;13.354;2023-05-14T02:11:48;0.20;;;0.20;;
17925;SDS011;9088;55.674;13.354;2023-05-14T02:14:17;0.30;;;0.30;;
17925;SDS011;9088;55.674;13.354;2023-05-14T02:16:44;0.27;;;0.27;;
17925;SDS011;9088;55.674;13.354;2023-05-14T02:19:11;0.20;;;0.20;;
17925;SDS011;9088;55.674;13.354;2023-05-14T02:21:38;0.30;;;0.30;;
17925;SDS011;9088;55.674;13.354;2023-05-14T02:24:05;0.30;;;0.30;;
17925;SDS011;9088;55.674;13.354;2023-05-14T02:26:32;0.20;;;0.20;;
17925;SDS011;9088;55.674;13.354;2023-05-14T02:28:59;0.20;;;0.20;;
17925;SDS011;9088;55.674;13.354;2023-05-14T02:31:28;0.20;;;0.20;;
17925;SDS011;9088;55.674;13.354;2023-05-14T02:33:55;0.20;;;0.20;;
17925;SDS011;9088;55.674;13.354;2023-05-14T02:36:22;0.20;;;0.20;;
17925;SDS011;9088;55.674;13.354;2023-05-14T02:38:49;0.20;;;0.20;;
17925;SDS011;9088;55.674;13.354;2023-05-14T02:41:16;0.20;;;0.20;;
17925;SDS011;9088;55.674;13.354;2023-05-14T02:43:43;0.20;;;0.20;;
17925;SDS011;9088;55.674;13.354;2023-05-14T02:46:10;0.20;;;0.20;;
17925;SDS011;9088;55.674;13.354;2023-05-14T02:48:38;0.30;;;0.30;;
17925;SDS011;9088;55.674;13.354;2023-05-14T02:51:06;0.30;;;0.30;;
17925;SDS011;9088;55.674;13.354;2023-05-14T02:53:33;0.30;;;0.30;;
17925;SDS011;9088;55.674;13.354;2023-05-14T02:56:00;0.30;;;0.30;;
17925;SDS011;9088;55.674;13.354;2023-05-14T02:58:27;0.30;;;0.30;;
17925;SDS011;9088;55.674;13.354;2023-05-14T03:00:54;0.30;;;0.30;;
17925;SDS011;9088;55.674;13.354;2023-05-14T03:03:21;0.30;;;0.30;;
17925;SDS011;9088;55.674;13.354;2023-05-14T03:05:49;0.30;;;0.30;;
17925;SDS011;9088;55.674;13.354;2023-05-14T03:08:16;0.30;;;0.30;;
17925;SDS011;9088;55.674;13.354;2023-05-14T03:10:43;0.30;;;0.30;;
17925;SDS011;9088;55.674;13.354;2023-05-14T03:13:10;1.70;;;1.70;;
17925;SDS011;9088;55.674;13.354;2023-05-14T03:15:41;1.80;;;1.80;;
17925;SDS011;9088;55.674;13.354;2023-05-14T03:18:08;1.80;;;1.80;;
17925;SDS011;9088;55.674;13.354;2023-05-14T03:20:35;1.77;;;1.77;;
17925;SDS011;9088;55.674;13.354;2023-05-14T03:23:04;1.80;;;1.80;;
17925;SDS011;9088;55.674;13.354;2023-05-14T03:25:31;1.70;;;1.70;;
17925;SDS011;9088;55.674;13.354;2023-05-14T03:27:58;1.70;;;1.70;;
17925;SDS011;9088;55.674;13.354;2023-05-14T03:30:25;1.70;;;1.70;;
17925;SDS011;9088;55.674;13.354;2023-05-14T03:32:52;1.67;;;1.67;;
17925;SDS011;9088;55.674;13.354;2023-05-14T03:35:20;1.63;;;1.63;;
17925;SDS011;9088;55.674;13.354;2023-05-14T03:37:47;1.73;;;1.73;;
17925;SDS011;9088;55.674;13.354;2023-05-14T03:40:16;1.77;;;1.77;;
17925;SDS011;9088;55.674;13.354;2023-05-14T03:42:43;1.60;;;1.60;;
17925;SDS011;9088;55.674;13.354;2023-05-14T03:45:10;1.70;;;1.70;;
17925;SDS011;9088;55.674;13.354;2023-05-14T03:47:37;1.73;;;1.73;;
17925;SDS011;9088;55.674;13.354;2023-05-14T03:50:05;1.77;;;1.77;;
17925;SDS011;9088;55.674;13.354;2023-05-14T03:52:39;1.50;;;1.50;;
17925;SDS011;9088;55.674;13.354;2023-05-14T03:55:07;1.70;;;1.70;;
17925;SDS011;9088;55.674;13.354;2023-05-14T03:57:36;1.60;;;1.60;;
17925;SDS011;9088;55.674;13.354;2023-05-14T04:00:03;1.70;;;1.70;;
17925;SDS011;9088;55.674;13.354;2023-05-14T04:02:31;1.60;;;1.60;;
17925;SDS011;9088;55.674;13.354;2023-05-14T04:04:58;1.60;;;1.60;;
17925;SDS011;9088;55.674;13.354;2023-05-14T04:07:25;1.60;;;1.60;;
17925;SDS011;9088;55.674;13.354;2023-05-14T04:09:52;1.70;;;1.70;;
17925;SDS011;9088;55.674;13.354;2023-05-14T04:12:19;1.60;;;1.60;;
17925;SDS011;9088;55.674;13.354;2023-05-14T04:14:47;1.43;;;1.43;;
17925;SDS011;9088;55.674;13.354;2023-05-14T04:17:14;1.70;;;1.70;;
17925;SDS011;9088;55.674;13.354;2023-05-14T04:19:41;1.60;;;1.60;;
17925;SDS011;9088;55.674;13.354;2023-05-14T04:22:08;1.53;;;1.53;;
17925;SDS011;9088;55.674;13.354;2023-05-14T04:24:35;1.50;;;1.50;;
17925;SDS011;9088;55.674;13.354;2023-05-14T04:27:02;1.60;;;1.60;;
17925;SDS011;9088;55.674;13.354;2023-05-14T04:29:30;1.60;;;1.60;;
17925;SDS011;9088;55.674;13.354;2023-05-14T04:31:58;1.60;;;1.60;;
17925;SDS011;9088;55.674;13.354;2023-05-14T04:34:25;1.60;;;1.60;;
17925;SDS011;9088;55.674;13.354;2023-05-14T04:36:52;1.60;;;1.60;;
17925;SDS011;9088;55.674;13.354;2023-05-14T04:39:20;1.50;;;1.50;;
17925;SDS011;9088;55.674;13.354;2023-05-14T04:41:46;1.50;;;1.50;;
17925;SDS011;9088;55.674;13.354;2023-05-14T04:44:14;1.50;;;1.50;;
17925;SDS011;9088;55.674;13.354;2023-05-14T04:46:41;1.40;;;1.40;;
17925;SDS011;9088;55.674;13.354;2023-05-14T04:49:09;1.50;;;1.50;;
17925;SDS011;9088;55.674;13.354;2023-05-14T04:51:36;1.30;;;1.30;;
17925;SDS011;9088;55.674;13.354;2023-05-14T04:54:03;1.50;;;1.50;;
17925;SDS011;9088;55.674;13.354;2023-05-14T04:56:30;1.63;;;1.63;;
17925;SDS011;9088;55.674;13.354;2023-05-14T04:58:57;1.60;;;1.60;;
17925;SDS011;9088;55.674;13.354;2023-05-14T05:01:25;1.40;;;1.40;;
17925;SDS011;9088;55.674;13.354;2023-05-14T05:03:52;1.50;;;1.50;;
17925;SDS011;9088;55.674;13.354;2023-05-14T05:06:20;1.40;;;1.40;;
17925;SDS011;9088;55.674;13.354;2023-05-14T05:08:47;1.50;;;1.50;;
17925;SDS011;9088;55.674;13.354;2023-05-14T05:11:14;1.70;;;1.70;;
17925;SDS011;9088;55.674;13.354;2023-05-14T05:13:41;1.57;;;1.57;;
17925;SDS011;9088;55.674;13.354;2023-05-14T05:16:08;1.70;;;1.70;;
17925;SDS011;9088;55.674;13.354;2023-05-14T05:18:35;1.60;;;1.60;;
17925;SDS011;9088;55.674;13.354;2023-05-14T05:21:03;1.70;;;1.70;;
17925;SDS011;9088;55.674;13.354;2023-05-14T05:23:32;1.70;;;1.70;;
17925;SDS011;9088;55.674;13.354;2023-05-14T05:25:59;1.60;;;1.60;;
17925;SDS011;9088;55.674;13.354;2023-05-14T05:28:26;1.50;;;1.50;;
17925;SDS011;9088;55.674;13.354;2023-05-14T05:30:53;1.67;;;1.67;;
17925;SDS011;9088;55.674;13.354;2023-05-14T05:33:20;1.40;;;1.40;;
17925;SDS011;9088;55.674;13.354;2023-05-14T05:35:47;1.80;;;1.80;;
17925;SDS011;9088;55.674;13.354;2023-05-14T05:38:14;1.80;;;1.80;;
17925;SDS011;9088;55.674;13.354;2023-05-14T05:40:43;1.60;;;1.60;;
17925;SDS011;9088;55.674;13.354;2023-05-14T05:43:10;1.60;;;1.60;;
17925;SDS011;9088;55.674;13.354;2023-05-14T05:45:38;1.50;;;1.50;;
17925;SDS011;9088;55.674;13.354;2023-05-14T05:48:05;1.80;;;1.80;;
17925;SDS011;9088;55.674;13.354;2023-05-14T05:50:32;1.70;;;1.70;;
17925;SDS011;9088;55.674;13.354;2023-05-14T05:52:59;1.80;;;1.80;;
17925;SDS011;9088;55.674;13.354;2023-05-14T05:55:27;1.60;;;1.60;;
17925;SDS011;9088;55.674;13.354;2023-05-14T05:57:55;1.50;;;1.50;;
17925;SDS011;9088;55.674;13.354;2023-05-14T06:00:22;1.40;;;1.40;;
17925;SDS011;9088;55.674;13.354;2023-05-14T06:02:49;1.57;;;1.57;;
17925;SDS011;9088;55.674;13.354;2023-05-14T06:05:16;1.60;;;1.60;;
17925;SDS011;9088;55.674;13.354;2023-05-14T06:07:43;1.70;;;1.70;;
17925;SDS011;9088;55.674;13.354;2023-05-14T06:10:10;1.47;;;1.47;;
17925;SDS011;9088;55.674;13.354;2023-05-14T06:12:37;1.40;;;1.40;;
17925;SDS011;9088;55.674;13.354;2023-05-14T06:15:06;1.50;;;1.50;;
17925;SDS011;9088;55.674;13.354;2023-05-14T06:17:34;1.40;;;1.40;;
17925;SDS011;9088;55.674;13.354;2023-05-14T06:20:01;1.50;;;1.50;;
17925;SDS011;9088;55.674;13.354;2023-05-14T06:22:29;1.50;;;1.50;;
17925;SDS011;9088;55.674;13.354;2023-05-14T06:24:56;1.50;;;1.50;;
17925;SDS011;9088;55.674;13.354;2023-05-14T06:27:23;1.40;;;1.40;;
17925;SDS011;9088;55.674;13.354;2023-05-14T06:29:50;1.43;;;1.43;;
17925;SDS011;9088;55.674;13.354;2023-05-14T06:32:18;1.30;;;1.30;;
17925;SDS011;9088;55.674;13.354;2023-05-14T06:34:46;1.30;;;1.30;;
17925;SDS011;9088;55.674;13.354;2023-05-14T06:37:13;1.30;;;1.30;;
17925;SDS011;9088;55.674;13.354;2023-05-14T06:39:40;1.50;;;1.50;;
17925;SDS011;9088;55.674;13.354;2023-05-14T06:42:12;1.40;;;1.40;;
17925;SDS011;9088;55.674;13.354;2023-05-14T06:44:39;1.40;;;1.40;;
17925;SDS011;9088;55.674;13.354;2023-05-14T06:47:06;1.30;;;1.30;;
17925;SDS011;9088;55.674;13.354;2023-05-14T06:49:34;1.30;;;1.30;;
17925;SDS011;9088;55.674;13.354;2023-05-14T06:52:02;1.30;;;1.30;;
17925;SDS011;9088;55.674;13.354;2023-05-14T06:54:29;1.20;;;1.20;;
17925;SDS011;9088;55.674;13.354;2023-05-14T06:56:56;1.30;;;1.30;;
17925;SDS011;9088;55.674;13.354;2023-05-14T06:59:23;1.30;;;1.30;;
17925;SDS011;9088;55.674;13.354;2023-05-14T07:01:50;1.27;;;1.27;;
17925;SDS011;9088;55.674;13.354;2023-05-14T07:04:17;1.30;;;1.30;;
17925;SDS011;9088;55.674;13.354;2023-05-14T07:06:45;1.30;;;1.30;;
17925;SDS011;9088;55.674;13.354;2023-05-14T07:09:12;1.40;;;1.40;;
17925;SDS011;9088;55.674;13.354;2023-05-14T07:11:39;1.20;;;1.20;;
17925;SDS011;9088;55.674;13.354;2023-05-14T07:14:06;1.40;;;1.40;;
17925;SDS011;9088;55.674;13.354;2023-05-14T07:16:33;1.30;;;1.30;;
17925;SDS011;9088;55.674;13.354;2023-05-14T07:19:00;1.20;;;1.20;;
17925;SDS011;9088;55.674;13.354;2023-05-14T07:21:27;1.20;;;1.20;;
17925;SDS011;9088;55.674;13.354;2023-05-14T07:23:57;1.30;;;1.30;;
17925;SDS011;9088;55.674;13.354;2023-05-14T07:26:24;1.30;;;1.30;;
17925;SDS011;9088;55.674;13.354;2023-05-14T07:28:51;1.30;;;1.30;;
17925;SDS011;9088;55.674;13.354;2023-05-14T07:31:18;1.30;;;1.30;;
17925;SDS011;9088;55.674;13.354;2023-05-14T07:33:45;1.30;;;1.30;;
17925;SDS011;9088;55.674;13.354;2023-05-14T07:36:12;1.20;;;1.20;;
17925;SDS011;9088;55.674;13.354;2023-05-14T07:38:39;1.20;;;1.20;;
17925;SDS011;9088;55.674;13.354;2023-05-14T07:41:07;1.30;;;1.30;;
17925;SDS011;9088;55.674;13.354;2023-05-14T07:43:36;1.40;;;1.40;;
17925;SDS011;9088;55.674;13.354;2023-05-14T07:46:04;1.30;;;1.30;;
17925;SDS011;9088;55.674;13.354;2023-05-14T07:48:31;1.50;;;1.50;;
17925;SDS011;9088;55.674;13.354;2023-05-14T07:50:58;1.40;;;1.40;;
17925;SDS011;9088;55.674;13.354;2023-05-14T07:53:25;1.40;;;1.40;;
17925;SDS011;9088;55.674;13.354;2023-05-14T07:55:52;1.30;;;1.30;;
17925;SDS011;9088;55.674;13.354;2023-05-14T07:58:21;1.30;;;1.30;;
17925;SDS011;9088;55.674;13.354;2023-05-14T08:00:49;1.30;;;1.30;;
17925;SDS011;9088;55.674;13.354;2023-05-14T08:03:16;1.27;;;1.27;;
17925;SDS011;9088;55.674;13.354;2023-05-14T08:05:45;1.50;;;1.50;;
17925;SDS011;9088;55.674;13.354;2023-05-14T08:08:12;1.50;;;1.50;;
17925;SDS011;9088;55.674;13.354;2023-05-14T08:10:40;1.40;;;1.40;;
17925;SDS011;9088;55.674;13.354;2023-05-14T08:13:07;1.40;;;1.40;;
17925;SDS011;9088;55.674;13.354;2023-05-14T08:15:35;1.40;;;1.40;;
17925;SDS011;9088;55.674;13.354;2023-05-14T08:18:02;1.70;;;1.70;;
17925;SDS011;9088;55.674;13.354;2023-05-14T08:20:29;1.50;;;1.50;;
17925;SDS011;9088;55.674;13.354;2023-05-14T08:22:56;1.60;;;1.60;;
17925;SDS011;9088;55.674;13.354;2023-05-14T08:25:23;1.43;;;1.43;;
17925;SDS011;9088;55.674;13.354;2023-05-14T08:27:50;1.40;;;1.40;;
17925;SDS011;9088;55.674;13.354;2023-05-14T08:30:18;1.50;;;1.50;;
17925;SDS011;9088;55.674;13.354;2023-05-14T08:32:47;1.40;;;1.40;;
17925;SDS011;9088;55.674;13.354;2023-05-14T08:35:14;1.50;;;1.50;;
17925;SDS011;9088;55.674;13.354;2023-05-14T08:37:41;1.50;;;1.50;;
17925;SDS011;9088;55.674;13.354;2023-05-14T08:40:08;1.60;;;1.60;;
17925;SDS011;9088;55.674;13.354;2023-05-14T08:42:35;1.60;;;1.60;;
17925;SDS011;9088;55.674;13.354;2023-05-14T08:45:05;1.67;;;1.67;;
17925;SDS011;9088;55.674;13.354;2023-05-14T08:47:32;1.60;;;1.60;;
17925;SDS011;9088;55.674;13.354;2023-05-14T08:50:01;1.60;;;1.60;;
17925;SDS011;9088;55.674;13.354;2023-05-14T08:52:29;1.50;;;1.50;;
17925;SDS011;9088;55.674;13.354;2023-05-14T08:54:56;1.60;;;1.60;;
17925;SDS011;9088;55.674;13.354;2023-05-14T08:57:24;1.50;;;1.50;;
17925;SDS011;9088;55.674;13.354;2023-05-14T08:59:51;1.60;;;1.60;;
17925;SDS011;9088;55.674;13.354;2023-05-14T09:02:19;1.60;;;1.60;;
17925;SDS011;9088;55.674;13.354;2023-05-14T09:04:46;1.52;;;1.52;;
17925;SDS011;9088;55.674;13.354;2023-05-14T09:07:15;1.40;;;1.40;;
17925;SDS011;9088;55.674;13.354;2023-05-14T09:09:42;1.40;;;1.40;;
17925;SDS011;9088;55.674;13.354;2023-05-14T09:12:10;1.30;;;1.30;;
17925;SDS011;9088;55.674;13.354;2023-05-14T09:14:37;1.40;;;1.40;;
17925;SDS011;9088;55.674;13.354;2023-05-14T09:17:04;1.42;;;1.42;;
17925;SDS011;9088;55.674;13.354;2023-05-14T09:19:31;1.60;;;1.60;;
17925;SDS011;9088;55.674;13.354;2023-05-14T09:21:58;1.33;;;1.33;;
17925;SDS011;9088;55.674;13.354;2023-05-14T09:24:29;1.33;;;1.33;;
17925;SDS011;9088;55.674;13.354;2023-05-14T09:26:56;1.50;;;1.50;;
17925;SDS011;9088;55.674;13.354;2023-05-14T09:29:24;1.20;;;1.20;;
17925;SDS011;9088;55.674;13.354;2023-05-14T09:31:51;1.30;;;1.30;;
17925;SDS011;9088;55.674;13.354;2023-05-14T09:34:22;1.20;;;1.20;;
17925;SDS011;9088;55.674;13.354;2023-05-14T09:36:49;1.40;;;1.40;;
17925;SDS011;9088;55.674;13.354;2023-05-14T09:39:21;1.42;;;1.42;;
17925;SDS011;9088;55.674;13.354;2023-05-14T09:41:49;1.27;;;1.27;;
17925;SDS011;9088;55.674;13.354;2023-05-14T09:44:17;1.50;;;1.50;;
17925;SDS011;9088;55.674;13.354;2023-05-14T09:46:44;1.30;;;1.30;;
17925;SDS011;9088;55.674;13.354;2023-05-14T09:49:11;1.40;;;1.40;;
17925;SDS011;9088;55.674;13.354;2023-05-14T09:51:38;1.50;;;1.50;;
17925;SDS011;9088;55.674;13.354;2023-05-14T09:54:05;1.52;;;1.52;;
17925;SDS011;9088;55.674;13.354;2023-05-14T09:56:33;1.50;;;1.50;;
17925;SDS011;9088;55.674;13.354;2023-05-14T09:59:01;1.40;;;1.40;;
17925;SDS011;9088;55.674;13.354;2023-05-14T10:01:29;1.50;;;1.50;;
17925;SDS011;9088;55.674;13.354;2023-05-14T10:03:57;1.50;;;1.50;;
17925;SDS011;9088;55.674;13.354;2023-05-14T10:06:27;1.23;;;1.23;;
17925;SDS011;9088;55.674;13.354;2023-05-14T10:08:54;1.20;;;1.20;;
17925;SDS011;9088;55.674;13.354;2023-05-14T10:11:24;1.20;;;1.20;;
17925;SDS011;9088;55.674;13.354;2023-05-14T10:13:54;1.40;;;1.40;;
17925;SDS011;9088;55.674;13.354;2023-05-14T10:16:26;1.43;;;1.43;;
17925;SDS011;9088;55.674;13.354;2023-05-14T10:18:55;1.50;;;1.50;;
17925;SDS011;9088;55.674;13.354;2023-05-14T10:21:26;1.40;;;1.40;;
17925;SDS011;9088;55.674;13.354;2023-05-14T10:23:56;1.48;;;1.48;;
17925;SDS011;9088;55.674;13.354;2023-05-14T10:26:24;1.30;;;1.30;;
17925;SDS011;9088;55.674;13.354;2023-05-14T10:28:51;1.35;;;1.35;;
17925;SDS011;9088;55.674;13.354;2023-05-14T10:31:21;1.30;;;1.30;;
17925;SDS011;9088;55.674;13.354;2023-05-14T10:33:50;1.17;;;1.17;;
17925;SDS011;9088;55.674;13.354;2023-05-14T10:36:19;1.35;;;1.35;;
17925;SDS011;9088;55.674;13.354;2023-05-14T10:38:46;1.50;;;1.50;;
17925;SDS011;9088;55.674;13.354;2023-05-14T10:41:20;1.38;;;1.38;;
17925;SDS011;9088;55.674;13.354;2023-05-14T10:43:47;1.23;;;1.23;;
17925;SDS011;9088;55.674;13.354;2023-05-14T10:46:15;1.15;;;1.15;;
17925;SDS011;9088;55.674;13.354;2023-05-14T10:48:42;1.30;;;1.30;;
17925;SDS011;9088;55.674;13.354;2023-05-14T10:51:11;1.30;;;1.30;;
17925;SDS011;9088;55.674;13.354;2023-05-14T10:53:39;1.25;;;1.25;;
17925;SDS011;9088;55.674;13.354;2023-05-14T10:56:07;1.52;;;1.52;;
17925;SDS011;9088;55.674;13.354;2023-05-14T10:58:35;1.42;;;1.42;;
17925;SDS011;9088;55.674;13.354;2023-05-14T11:01:03;1.38;;;1.38;;
17925;SDS011;9088;55.674;13.354;2023-05-14T11:03:37;1.23;;;1.23;;
17925;SDS011;9088;55.674;13.354;2023-05-14T11:06:04;1.45;;;1.45;;
17925;SDS011;9088;55.674;13.354;2023-05-14T11:08:33;1.30;;;1.30;;
17925;SDS011;9088;55.674;13.354;2023-05-14T11:11:00;1.30;;;1.30;;
17925;SDS011;9088;55.674;13.354;2023-05-14T11:13:28;1.35;;;1.35;;
17925;SDS011;9088;55.674;13.354;2023-05-14T11:15:56;1.30;;;1.30;;
17925;SDS011;9088;55.674;13.354;2023-05-14T11:18:27;1.30;;;1.30;;
17925;SDS011;9088;55.674;13.354;2023-05-14T11:20:57;1.20;;;1.20;;
17925;SDS011;9088;55.674;13.354;2023-05-14T11:23:24;1.40;;;1.40;;
17925;SDS011;9088;55.674;13.354;2023-05-14T11:25:52;1.20;;;1.20;;
17925;SDS011;9088;55.674;13.354;2023-05-14T11:28:20;1.33;;;1.33;;
17925;SDS011;9088;55.674;13.354;2023-05-14T11:30:47;1.40;;;1.40;;
17925;SDS011;9088;55.674;13.354;2023-05-14T11:33:14;1.08;;;1.08;;
17925;SDS011;9088;55.674;13.354;2023-05-14T11:35:41;1.13;;;1.13;;
17925;SDS011;9088;55.674;13.354;2023-05-14T11:38:12;1.40;;;1.40;;
17925;SDS011;9088;55.674;13.354;2023-05-14T11:40:39;1.30;;;1.30;;
17925;SDS011;9088;55.674;13.354;2023-05-14T11:43:07;1.45;;;1.45;;
17925;SDS011;9088;55.674;13.354;2023-05-14T11:45:35;1.38;;;1.38;;
17925;SDS011;9088;55.674;13.354;2023-05-14T11:48:10;1.40;;;1.40;;
17925;SDS011;9088;55.674;13.354;2023-05-14T11:50:38;1.50;;;1.50;;
17925;SDS011;9088;55.674;13.354;2023-05-14T11:53:05;1.40;;;1.40;;
17925;SDS011;9088;55.674;13.354;2023-05-14T11:55:33;1.10;;;1.10;;
17925;SDS011;9088;55.674;13.354;2023-05-14T11:58:00;1.30;;;1.30;;
17925;SDS011;9088;55.674;13.354;2023-05-14T12:00:29;1.15;;;1.15;;
17925;SDS011;9088;55.674;13.354;2023-05-14T12:02:58;1.50;;;1.50;;
17925;SDS011;9088;55.674;13.354;2023-05-14T12:05:25;1.35;;;1.35;;
17925;SDS011;9088;55.674;13.354;2023-05-14T12:07:52;1.20;;;1.20;;
17925;SDS011;9088;55.674;13.354;2023-05-14T12:10:20;1.30;;;1.30;;
17925;SDS011;9088;55.674;13.354;2023-05-14T12:12:47;1.30;;;1.30;;
17925;SDS011;9088;55.674;13.354;2023-05-14T12:15:15;1.15;;;1.15;;
17925;SDS011;9088;55.674;13.354;2023-05-14T12:17:43;1.30;;;1.30;;
17925;SDS011;9088;55.674;13.354;2023-05-14T12:20:15;1.25;;;1.25;;
17925;SDS011;9088;55.674;13.354;2023-05-14T12:22:43;1.10;;;1.10;;
17925;SDS011;9088;55.674;13.354;2023-05-14T12:25:10;1.27;;;1.27;;
17925;SDS011;9088;55.674;13.354;2023-05-14T12:27:38;1.40;;;1.40;;
17925;SDS011;9088;55.674;13.354;2023-05-14T12:30:05;1.40;;;1.40;;
17925;SDS011;9088;55.674;13.354;2023-05-14T12:32:33;1.23;;;1.23;;
17925;SDS011;9088;55.674;13.354;2023-05-14T12:35:02;1.27;;;1.27;;
17925;SDS011;9088;55.674;13.354;2023-05-14T12:37:29;1.20;;;1.20;;
17925;SDS011;9088;55.674;13.354;2023-05-14T12:39:56;0.90;;;0.90;;
17925;SDS011;9088;55.674;13.354;2023-05-14T12:42:23;1.27;;;1.27;;
17925;SDS011;9088;55.674;13.354;2023-05-14T12:44:50;1.15;;;1.15;;
17925;SDS011;9088;55.674;13.354;2023-05-14T12:47:18;1.20;;;1.20;;
17925;SDS011;9088;55.674;13.354;2023-05-14T12:49:45;1.08;;;1.08;;
17925;SDS011;9088;55.674;13.354;2023-05-14T12:52:13;1.20;;;1.20;;
17925;SDS011;9088;55.674;13.354;2023-05-14T12:54:41;1.10;;;1.10;;
17925;SDS011;9088;55.674;13.354;2023-05-14T12:57:08;1.10;;;1.10;;
17925;SDS011;9088;55.674;13.354;2023-05-14T12:59:35;1.38;;;1.38;;
17925;SDS011;9088;55.674;13.354;2023-05-14T13:02:02;1.30;;;1.30;;
17925;SDS011;9088;55.674;13.354;2023-05-14T13:04:29;1.23;;;1.23;;
17925;SDS011;9088;55.674;13.354;2023-05-14T13:06:56;1.15;;;1.15;;
17925;SDS011;9088;55.674;13.354;2023-05-14T13:09:24;1.27;;;1.27;;
17925;SDS011;9088;55.674;13.354;2023-05-14T13:11:52;1.10;;;1.10;;
17925;SDS011;9088;55.674;13.354;2023-05-14T13:14:19;1.27;;;1.27;;
17925;SDS011;9088;55.674;13.354;2023-05-14T13:16:46;1.42;;;1.42;;
17925;SDS011;9088;55.674;13.354;2023-05-14T13:19:13;1.20;;;1.20;;
17925;SDS011;9088;55.674;13.354;2023-05-14T13:21:40;1.33;;;1.33;;
17925;SDS011;9088;55.674;13.354;2023-05-14T13:24:07;1.30;;;1.30;;
17925;SDS011;9088;55.674;13.354;2023-05-14T13:26:36;1.40;;;1.40;;
17925;SDS011;9088;55.674;13.354;2023-05-14T13:29:03;1.27;;;1.27;;
17925;SDS011;9088;55.674;13.354;2023-05-14T13:31:30;1.27;;;1.27;;
17925;SDS011;9088;55.674;13.354;2023-05-14T13:33:57;1.45;;;1.45;;
17925;SDS011;9088;55.674;13.354;2023-05-14T13:36:26;1.30;;;1.30;;
17925;SDS011;9088;55.674;13.354;2023-05-14T13:38:54;1.30;;;1.30;;
17925;SDS011;9088;55.674;13.354;2023-05-14T13:41:21;1.10;;;1.10;;
17925;SDS011;9088;55.674;13.354;2023-05-14T13:43:50;1.27;;;1.27;;
17925;SDS011;9088;55.674;13.354;2023-05-14T13:46:17;1.35;;;1.35;;
17925;SDS011;9088;55.674;13.354;2023-05-14T13:48:44;1.35;;;1.35;;
17925;SDS011;9088;55.674;13.354;2023-05-14T13:51:11;1.50;;;1.50;;
17925;SDS011;9088;55.674;13.354;2023-05-14T13:53:38;1.30;;;1.30;;
17925;SDS011;9088;55.674;13.354;2023-05-14T13:56:05;1.25;;;1.25;;
17925;SDS011;9088;55.674;13.354;2023-05-14T13:58:32;1.40;;;1.40;;
17925;SDS011;9088;55.674;13.354;2023-05-14T14:01:01;1.38;;;1.38;;
17925;SDS011;9088;55.674;13.354;2023-05-14T14:03:28;1.30;;;1.30;;
17925;SDS011;9088;55.674;13.354;2023-05-14T14:05:55;1.30;;;1.30;;
17925;SDS011;9088;55.674;13.354;2023-05-14T14:08:22;1.30;;;1.30;;
17925;SDS011;9088;55.674;13.354;2023-05-14T14:10:49;1.38;;;1.38;;
17925;SDS011;9088;55.674;13.354;2023-05-14T14:13:17;1.20;;;1.20;;
17925;SDS011;9088;55.674;13.354;2023-05-14T14:15:45;1.42;;;1.42;;
17925;SDS011;9088;55.674;13.354;2023-05-14T14:18:13;1.30;;;1.30;;
17925;SDS011;9088;55.674;13.354;2023-05-14T14:20:40;1.30;;;1.30;;
17925;SDS011;9088;55.674;13.354;2023-05-14T14:23:07;1.30;;;1.30;;
17925;SDS011;9088;55.674;13.354;2023-05-14T14:25:34;1.27;;;1.27;;
17925;SDS011;9088;55.674;13.354;2023-05-14T14:28:01;1.55;;;1.55;;
17925;SDS011;9088;55.674;13.354;2023-05-14T14:30:28;1.33;;;1.33;;
17925;SDS011;9088;55.674;13.354;2023-05-14T14:32:55;1.40;;;1.40;;
17925;SDS011;9088;55.674;13.354;2023-05-14T14:35:26;1.45;;;1.45;;
17925;SDS011;9088;55.674;13.354;2023-05-14T14:37:54;1.52;;;1.52;;
17925;SDS011;9088;55.674;13.354;2023-05-14T14:40:21;1.40;;;1.40;;
17925;SDS011;9088;55.674;13.354;2023-05-14T14:42:50;1.50;;;1.50;;
17925;SDS011;9088;55.674;13.354;2023-05-14T14:45:17;1.52;;;1.52;;
17925;SDS011;9088;55.674;13.354;2023-05-14T14:47:44;1.40;;;1.40;;
17925;SDS011;9088;55.674;13.354;2023-05-14T14:50:12;1.55;;;1.55;;